Portada
METAR-TAF:

METAR-TAF

Aeroports :

Kaneohe, Hawaii, Estats Units d'Amèrica

latitud: 21-27-14N, longitud: 157-45-56W, altitud: 5 m

Observació

L'informe es va fer fa 45 minuts, a les 08:57 UTC
Vent 10 kt del Est amb ràfegues de 18 kt
Temperatura 25°C
Humitat 69%
Pressió 1019 hPa
Visibilitat: 16.1 km
Escasses núvols a una alçada de 2400 ft
Núvols disperses a una alçada de 5500 ft

METAR: PHNG 050857Z AUTO 08010G18KT 10SM FEW024 SCT055 25/19 A3010 RMK AO2 SLP189 T02500194 50008 $

Hora: 23:42 (09:42 UTC)


TAF: manca

Observacions i pronòstics meteorològics de més de 4000 aeroports (METAR i TAF).

Les estacions disponibles són els punts grocs i vermells al mapa.

Posi el ratolí al punt desitjat per veure el nom de l'estació.

Feu clic per veure les observacions i els pronòstics meteorològics.

Per canviar el mapa: feu clic els botons verds amb una creu de color negre per apropar; al botó verd amb un guió per allunyar la imatge; o en les fletxes verdes per a mapes adjacents.


METAR-TAF: